sensor_id;sensor_type;location;lat;lon;timestamp;pressure;altitude;pressure_sealevel;temperature;humidity
12666;BME280;58531;59.050;17.416;2024-03-17T00:02:26;100350.09;;;-1.82;100.00
12666;BME280;58531;59.050;17.416;2024-03-17T00:04:52;100357.91;;;-1.86;100.00
12666;BME280;58531;59.050;17.416;2024-03-17T00:07:20;100369.50;;;-1.87;100.00
12666;BME280;58531;59.050;17.416;2024-03-17T00:09:46;100367.25;;;-1.85;100.00
12666;BME280;58531;59.050;17.416;2024-03-17T00:12:13;100363.78;;;-1.92;100.00
12666;BME280;58531;59.050;17.416;2024-03-17T00:14:40;100369.09;;;-1.89;100.00
12666;BME280;58531;59.050;17.416;2024-03-17T00:17:08;100373.22;;;-1.88;100.00
12666;BME280;58531;59.050;17.416;2024-03-17T00:19:34;100400.50;;;-1.85;100.00
12666;BME280;58531;59.050;17.416;2024-03-17T00:22:01;100396.38;;;-1.90;100.00
12666;BME280;58531;59.050;17.416;2024-03-17T00:24:29;100384.38;;;-1.91;100.00
12666;BME280;58531;59.050;17.416;2024-03-17T00:27:00;100393.28;;;-1.95;100.00
12666;BME280;58531;59.050;17.416;2024-03-17T00:29:28;100397.38;;;-1.98;100.00
12666;BME280;58531;59.050;17.416;2024-03-17T00:31:55;100395.47;;;-2.01;100.00
12666;BME280;58531;59.050;17.416;2024-03-17T00:34:21;100401.50;;;-1.97;100.00
12666;BME280;58531;59.050;17.416;2024-03-17T00:36:48;100416.09;;;-1.96;100.00
12666;BME280;58531;59.050;17.416;2024-03-17T00:39:15;100418.41;;;-1.91;100.00
12666;BME280;58531;59.050;17.416;2024-03-17T00:41:44;100428.88;;;-1.91;100.00
12666;BME280;58531;59.050;17.416;2024-03-17T00:44:09;100407.13;;;-1.95;100.00
12666;BME280;58531;59.050;17.416;2024-03-17T00:46:36;100429.09;;;-2.03;100.00
12666;BME280;58531;59.050;17.416;2024-03-17T00:49:02;100432.50;;;-1.99;100.00
12666;BME280;58531;59.050;17.416;2024-03-17T00:51:31;100432.72;;;-2.11;100.00
12666;BME280;58531;59.050;17.416;2024-03-17T00:53:57;100454.44;;;-2.07;100.00
12666;BME280;58531;59.050;17.416;2024-03-17T00:56:24;100453.31;;;-2.09;100.00
12666;BME280;58531;59.050;17.416;2024-03-17T00:58:51;100463.31;;;-2.15;100.00
12666;BME280;58531;59.050;17.416;2024-03-17T01:01:18;100474.56;;;-2.11;100.00
12666;BME280;58531;59.050;17.416;2024-03-17T01:03:44;100478.03;;;-2.03;100.00
12666;BME280;58531;59.050;17.416;2024-03-17T01:06:11;100478.34;;;-2.08;100.00
12666;BME280;58531;59.050;17.416;2024-03-17T01:08:37;100499.28;;;-2.08;100.00
12666;BME280;58531;59.050;17.416;2024-03-17T01:11:04;100504.84;;;-2.10;100.00
12666;BME280;58531;59.050;17.416;2024-03-17T01:13:34;100506.38;;;-2.09;100.00
12666;BME280;58531;59.050;17.416;2024-03-17T01:16:03;100507.13;;;-2.08;100.00
12666;BME280;58531;59.050;17.416;2024-03-17T01:18:29;100505.97;;;-2.11;100.00
12666;BME280;58531;59.050;17.416;2024-03-17T01:20:56;100519.09;;;-2.07;100.00
12666;BME280;58531;59.050;17.416;2024-03-17T01:23:22;100496.66;;;-2.08;100.00
12666;BME280;58531;59.050;17.416;2024-03-17T01:25:49;100523.13;;;-2.13;100.00
12666;BME280;58531;59.050;17.416;2024-03-17T01:28:15;100517.19;;;-2.10;100.00
12666;BME280;58531;59.050;17.416;2024-03-17T01:30:42;100527.03;;;-2.00;100.00
12666;BME280;58531;59.050;17.416;2024-03-17T01:33:09;100520.63;;;-2.06;100.00
12666;BME280;58531;59.050;17.416;2024-03-17T01:35:37;100524.66;;;-2.09;100.00
12666;BME280;58531;59.050;17.416;2024-03-17T01:38:06;100537.25;;;-2.18;100.00
12666;BME280;58531;59.050;17.416;2024-03-17T01:40:33;100526.19;;;-2.08;100.00
12666;BME280;58531;59.050;17.416;2024-03-17T01:42:58;100531.00;;;-2.10;100.00
12666;BME280;58531;59.050;17.416;2024-03-17T01:45:27;100523.94;;;-2.09;100.00
12666;BME280;58531;59.050;17.416;2024-03-17T01:47:54;100529.91;;;-2.09;100.00
12666;BME280;58531;59.050;17.416;2024-03-17T01:50:25;100537.63;;;-2.16;100.00
12666;BME280;58531;59.050;17.416;2024-03-17T01:52:53;100548.50;;;-2.14;100.00
12666;BME280;58531;59.050;17.416;2024-03-17T01:55:21;100549.63;;;-2.15;100.00
12666;BME280;58531;59.050;17.416;2024-03-17T01:57:47;100545.19;;;-2.11;100.00
12666;BME280;58531;59.050;17.416;2024-03-17T02:00:15;100548.63;;;-2.07;100.00
12666;BME280;58531;59.050;17.416;2024-03-17T02:02:41;100557.56;;;-2.08;100.00
12666;BME280;58531;59.050;17.416;2024-03-17T02:05:08;100544.91;;;-2.06;100.00
12666;BME280;58531;59.050;17.416;2024-03-17T02:07:35;100567.22;;;-2.12;100.00
12666;BME280;58531;59.050;17.416;2024-03-17T02:10:03;100561.00;;;-2.04;100.00
12666;BME280;58531;59.050;17.416;2024-03-17T02:12:29;100565.78;;;-2.09;100.00
12666;BME280;58531;59.050;17.416;2024-03-17T02:14:57;100573.22;;;-2.11;100.00
12666;BME280;58531;59.050;17.416;2024-03-17T02:17:23;100574.38;;;-2.09;100.00
12666;BME280;58531;59.050;17.416;2024-03-17T02:19:52;100577.69;;;-2.12;100.00
12666;BME280;58531;59.050;17.416;2024-03-17T02:22:20;100576.88;;;-2.16;100.00
12666;BME280;58531;59.050;17.416;2024-03-17T02:24:46;100585.13;;;-2.14;100.00
12666;BME280;58531;59.050;17.416;2024-03-17T02:27:13;100600.13;;;-2.11;100.00
12666;BME280;58531;59.050;17.416;2024-03-17T02:29:40;100614.25;;;-2.15;100.00
12666;BME280;58531;59.050;17.416;2024-03-17T02:32:06;100607.63;;;-2.09;100.00
12666;BME280;58531;59.050;17.416;2024-03-17T02:34:33;100605.88;;;-2.02;100.00
12666;BME280;58531;59.050;17.416;2024-03-17T02:37:00;100609.88;;;-2.08;100.00
12666;BME280;58531;59.050;17.416;2024-03-17T02:39:28;100614.66;;;-2.13;100.00
12666;BME280;58531;59.050;17.416;2024-03-17T02:42:00;100621.41;;;-2.12;100.00
12666;BME280;58531;59.050;17.416;2024-03-17T02:44:27;100620.22;;;-2.15;100.00
12666;BME280;58531;59.050;17.416;2024-03-17T02:46:54;100631.59;;;-2.07;100.00
12666;BME280;58531;59.050;17.416;2024-03-17T02:49:21;100625.59;;;-2.08;100.00
12666;BME280;58531;59.050;17.416;2024-03-17T02:51:48;100642.69;;;-2.14;100.00
12666;BME280;58531;59.050;17.416;2024-03-17T02:54:15;100642.50;;;-2.02;100.00
12666;BME280;58531;59.050;17.416;2024-03-17T02:56:44;100642.09;;;-2.04;100.00
12666;BME280;58531;59.050;17.416;2024-03-17T02:59:12;100645.00;;;-2.09;100.00
12666;BME280;58531;59.050;17.416;2024-03-17T03:01:39;100666.75;;;-2.05;100.00
12666;BME280;58531;59.050;17.416;2024-03-17T03:04:06;100652.50;;;-2.07;100.00
12666;BME280;58531;59.050;17.416;2024-03-17T03:06:33;100654.44;;;-2.04;100.00
12666;BME280;58531;59.050;17.416;2024-03-17T03:09:00;100664.13;;;-2.05;100.00
12666;BME280;58531;59.050;17.416;2024-03-17T03:11:27;100664.41;;;-2.10;100.00
12666;BME280;58531;59.050;17.416;2024-03-17T03:13:55;100669.25;;;-2.12;100.00
12666;BME280;58531;59.050;17.416;2024-03-17T03:16:22;100686.97;;;-2.02;100.00
12666;BME280;58531;59.050;17.416;2024-03-17T03:18:50;100675.66;;;-2.09;100.00
12666;BME280;58531;59.050;17.416;2024-03-17T03:21:17;100709.28;;;-2.08;100.00
12666;BME280;58531;59.050;17.416;2024-03-17T03:23:44;100706.34;;;-2.06;100.00
12666;BME280;58531;59.050;17.416;2024-03-17T03:26:11;100711.50;;;-2.10;100.00
12666;BME280;58531;59.050;17.416;2024-03-17T03:28:38;100704.47;;;-2.06;100.00
12666;BME280;58531;59.050;17.416;2024-03-17T03:31:10;100707.44;;;-2.07;100.00
12666;BME280;58531;59.050;17.416;2024-03-17T03:33:39;100714.19;;;-2.06;100.00
12666;BME280;58531;59.050;17.416;2024-03-17T03:36:11;100708.72;;;-1.98;100.00
12666;BME280;58531;59.050;17.416;2024-03-17T03:38:38;100728.16;;;-1.99;100.00
12666;BME280;58531;59.050;17.416;2024-03-17T03:41:08;100730.19;;;-2.11;100.00
12666;BME280;58531;59.050;17.416;2024-03-17T03:43:36;100750.31;;;-2.12;100.00
12666;BME280;58531;59.050;17.416;2024-03-17T03:46:03;100748.25;;;-2.03;100.00
12666;BME280;58531;59.050;17.416;2024-03-17T03:48:32;100746.88;;;-1.97;100.00
12666;BME280;58531;59.050;17.416;2024-03-17T03:51:03;100749.53;;;-1.93;100.00
12666;BME280;58531;59.050;17.416;2024-03-17T03:53:31;100754.72;;;-1.97;100.00
12666;BME280;58531;59.050;17.416;2024-03-17T03:55:57;100762.84;;;-2.02;100.00
12666;BME280;58531;59.050;17.416;2024-03-17T03:58:24;100766.16;;;-2.05;100.00
12666;BME280;58531;59.050;17.416;2024-03-17T04:00:53;100750.41;;;-2.08;100.00
12666;BME280;58531;59.050;17.416;2024-03-17T04:03:20;100765.34;;;-2.09;100.00
12666;BME280;58531;59.050;17.416;2024-03-17T04:05:49;100762.38;;;-2.07;100.00
12666;BME280;58531;59.050;17.416;2024-03-17T04:08:16;100764.22;;;-2.08;100.00
12666;BME280;58531;59.050;17.416;2024-03-17T04:10:43;100778.81;;;-2.07;100.00
12666;BME280;58531;59.050;17.416;2024-03-17T04:13:10;100789.16;;;-2.14;100.00
12666;BME280;58531;59.050;17.416;2024-03-17T04:15:37;100779.53;;;-2.10;100.00
12666;BME280;58531;59.050;17.416;2024-03-17T04:18:04;100814.63;;;-2.11;100.00
12666;BME280;58531;59.050;17.416;2024-03-17T04:20:31;100801.28;;;-2.06;100.00
12666;BME280;58531;59.050;17.416;2024-03-17T04:22:59;100792.28;;;-2.08;100.00
12666;BME280;58531;59.050;17.416;2024-03-17T04:25:26;100792.59;;;-2.10;100.00
12666;BME280;58531;59.050;17.416;2024-03-17T04:27:53;100811.59;;;-2.13;100.00
12666;BME280;58531;59.050;17.416;2024-03-17T04:30:20;100815.00;;;-2.12;100.00
12666;BME280;58531;59.050;17.416;2024-03-17T04:32:49;100832.66;;;-2.06;100.00
12666;BME280;58531;59.050;17.416;2024-03-17T04:35:17;100831.94;;;-2.06;100.00
12666;BME280;58531;59.050;17.416;2024-03-17T04:37:44;100845.28;;;-2.11;100.00
12666;BME280;58531;59.050;17.416;2024-03-17T04:40:13;100859.50;;;-2.09;100.00
12666;BME280;58531;59.050;17.416;2024-03-17T04:42:40;100855.16;;;-2.01;100.00
12666;BME280;58531;59.050;17.416;2024-03-17T04:45:10;100870.88;;;-2.01;100.00
12666;BME280;58531;59.050;17.416;2024-03-17T04:47:37;100875.34;;;-2.02;100.00
12666;BME280;58531;59.050;17.416;2024-03-17T04:50:05;100891.09;;;-1.98;100.00
12666;BME280;58531;59.050;17.416;2024-03-17T04:52:32;100896.00;;;-1.97;100.00
12666;BME280;58531;59.050;17.416;2024-03-17T04:54:59;100904.59;;;-1.96;100.00
12666;BME280;58531;59.050;17.416;2024-03-17T04:57:27;100907.66;;;-1.94;100.00
12666;BME280;58531;59.050;17.416;2024-03-17T04:59:54;100908.75;;;-1.95;100.00
12666;BME280;58531;59.050;17.416;2024-03-17T05:02:21;100910.50;;;-1.84;100.00
12666;BME280;58531;59.050;17.416;2024-03-17T05:04:48;100909.31;;;-1.86;100.00
12666;BME280;58531;59.050;17.416;2024-03-17T05:07:17;100928.72;;;-1.87;100.00
12666;BME280;58531;59.050;17.416;2024-03-17T05:09:44;100916.75;;;-1.88;100.00
12666;BME280;58531;59.050;17.416;2024-03-17T05:12:10;100927.16;;;-1.92;100.00
12666;BME280;58531;59.050;17.416;2024-03-17T05:14:39;100948.09;;;-1.92;100.00
12666;BME280;58531;59.050;17.416;2024-03-17T05:17:06;100951.94;;;-1.86;100.00
12666;BME280;58531;59.050;17.416;2024-03-17T05:19:36;100949.66;;;-1.87;100.00
12666;BME280;58531;59.050;17.416;2024-03-17T05:22:03;100949.66;;;-1.87;100.00
12666;BME280;58531;59.050;17.416;2024-03-17T05:24:30;100963.44;;;-1.90;100.00
12666;BME280;58531;59.050;17.416;2024-03-17T05:26:57;100987.75;;;-1.90;100.00
12666;BME280;58531;59.050;17.416;2024-03-17T05:29:24;100983.34;;;-1.86;100.00
12666;BME280;58531;59.050;17.416;2024-03-17T05:31:52;100981.84;;;-1.87;100.00
12666;BME280;58531;59.050;17.416;2024-03-17T05:34:19;101001.81;;;-1.79;100.00
12666;BME280;58531;59.050;17.416;2024-03-17T05:36:46;101000.78;;;-1.74;100.00
12666;BME280;58531;59.050;17.416;2024-03-17T05:39:13;101008.91;;;-1.79;100.00
12666;BME280;58531;59.050;17.416;2024-03-17T05:41:40;101024.41;;;-1.71;100.00
12666;BME280;58531;59.050;17.416;2024-03-17T05:44:09;101041.31;;;-1.68;100.00
12666;BME280;58531;59.050;17.416;2024-03-17T05:46:36;101029.31;;;-1.69;100.00
12666;BME280;58531;59.050;17.416;2024-03-17T05:49:04;101036.28;;;-1.58;100.00
12666;BME280;58531;59.050;17.416;2024-03-17T05:51:32;101062.41;;;-1.61;100.00
12666;BME280;58531;59.050;17.416;2024-03-17T05:53:59;101048.06;;;-1.67;100.00
12666;BME280;58531;59.050;17.416;2024-03-17T05:56:26;101044.94;;;-1.73;100.00
12666;BME280;58531;59.050;17.416;2024-03-17T05:58:51;101047.56;;;-1.73;100.00
12666;BME280;58531;59.050;17.416;2024-03-17T06:01:18;101080.00;;;-1.77;100.00
12666;BME280;58531;59.050;17.416;2024-03-17T06:03:48;101068.75;;;-1.78;100.00
12666;BME280;58531;59.050;17.416;2024-03-17T06:06:16;101070.22;;;-1.80;100.00
12666;BME280;58531;59.050;17.416;2024-03-17T06:08:43;101087.38;;;-1.83;100.00
12666;BME280;58531;59.050;17.416;2024-03-17T06:11:10;101091.16;;;-1.80;100.00
12666;BME280;58531;59.050;17.416;2024-03-17T06:13:37;101097.53;;;-1.78;100.00
12666;BME280;58531;59.050;17.416;2024-03-17T06:16:04;101109.72;;;-1.85;100.00
12666;BME280;58531;59.050;17.416;2024-03-17T06:18:34;101111.25;;;-1.84;100.00
12666;BME280;58531;59.050;17.416;2024-03-17T06:21:04;101109.72;;;-1.85;100.00
12666;BME280;58531;59.050;17.416;2024-03-17T06:23:33;101121.09;;;-1.78;100.00
12666;BME280;58531;59.050;17.416;2024-03-17T06:26:00;101122.09;;;-1.67;100.00
12666;BME280;58531;59.050;17.416;2024-03-17T06:28:27;101143.91;;;-1.63;100.00
12666;BME280;58531;59.050;17.416;2024-03-17T06:30:56;101123.53;;;-1.54;100.00
12666;BME280;58531;59.050;17.416;2024-03-17T06:33:25;101115.84;;;-1.47;100.00
12666;BME280;58531;59.050;17.416;2024-03-17T06:35:52;101135.84;;;-1.39;100.00
12666;BME280;58531;59.050;17.416;2024-03-17T06:38:19;101135.44;;;-1.41;100.00
12666;BME280;58531;59.050;17.416;2024-03-17T06:40:50;101152.66;;;-1.40;100.00
12666;BME280;58531;59.050;17.416;2024-03-17T06:43:18;101156.59;;;-1.30;100.00
12666;BME280;58531;59.050;17.416;2024-03-17T06:45:55;101162.53;;;-1.33;100.00
12666;BME280;58531;59.050;17.416;2024-03-17T06:48:23;101170.06;;;-1.32;100.00
12666;BME280;58531;59.050;17.416;2024-03-17T06:50:51;101160.94;;;-1.38;100.00
12666;BME280;58531;59.050;17.416;2024-03-17T06:53:19;101172.34;;;-1.46;100.00
12666;BME280;58531;59.050;17.416;2024-03-17T06:55:58;101175.81;;;-1.42;100.00
12666;BME280;58531;59.050;17.416;2024-03-17T06:58:26;101181.13;;;-1.38;100.00
12666;BME280;58531;59.050;17.416;2024-03-17T07:00:55;101194.56;;;-1.40;100.00
12666;BME280;58531;59.050;17.416;2024-03-17T07:03:24;101191.69;;;-1.35;100.00
12666;BME280;58531;59.050;17.416;2024-03-17T07:05:52;101195.56;;;-1.29;100.00
12666;BME280;58531;59.050;17.416;2024-03-17T07:08:18;101205.75;;;-1.24;100.00
12666;BME280;58531;59.050;17.416;2024-03-17T07:10:56;101203.56;;;-1.22;100.00
12666;BME280;58531;59.050;17.416;2024-03-17T07:13:23;101214.72;;;-1.10;100.00
12666;BME280;58531;59.050;17.416;2024-03-17T07:15:50;101213.66;;;-1.05;100.00
12666;BME280;58531;59.050;17.416;2024-03-17T07:18:17;101210.44;;;-0.99;100.00
12666;BME280;58531;59.050;17.416;2024-03-17T07:20:44;101215.63;;;-1.02;100.00
12666;BME280;58531;59.050;17.416;2024-03-17T07:23:13;101228.47;;;-0.97;100.00
12666;BME280;58531;59.050;17.416;2024-03-17T07:25:40;101239.78;;;-0.93;100.00
12666;BME280;58531;59.050;17.416;2024-03-17T07:28:09;101242.19;;;-0.85;100.00
12666;BME280;58531;59.050;17.416;2024-03-17T07:30:36;101233.59;;;-0.66;100.00
12666;BME280;58531;59.050;17.416;2024-03-17T07:33:03;101254.00;;;-0.75;100.00
12666;BME280;58531;59.050;17.416;2024-03-17T07:35:29;101252.00;;;-0.82;100.00
12666;BME280;58531;59.050;17.416;2024-03-17T07:37:56;101256.50;;;-0.82;100.00
12666;BME280;58531;59.050;17.416;2024-03-17T07:40:23;101249.13;;;-0.77;100.00
12666;BME280;58531;59.050;17.416;2024-03-17T07:42:50;101284.16;;;-0.85;100.00
12666;BME280;58531;59.050;17.416;2024-03-17T07:45:20;101273.50;;;-0.92;100.00
12666;BME280;58531;59.050;17.416;2024-03-17T07:47:50;101305.56;;;-0.98;100.00
12666;BME280;58531;59.050;17.416;2024-03-17T07:50:17;101282.91;;;-1.06;100.00
12666;BME280;58531;59.050;17.416;2024-03-17T07:52:43;101291.19;;;-1.04;100.00
12666;BME280;58531;59.050;17.416;2024-03-17T07:55:11;101265.91;;;-0.97;100.00
12666;BME280;58531;59.050;17.416;2024-03-17T07:57:38;101287.84;;;-1.05;100.00
12666;BME280;58531;59.050;17.416;2024-03-17T08:00:07;101294.41;;;-0.95;100.00
12666;BME280;58531;59.050;17.416;2024-03-17T08:02:44;101307.25;;;-0.90;100.00
12666;BME280;58531;59.050;17.416;2024-03-17T08:05:11;101288.72;;;-0.82;100.00
12666;BME280;58531;59.050;17.416;2024-03-17T08:07:39;101313.06;;;-0.97;100.00
12666;BME280;58531;59.050;17.416;2024-03-17T08:10:07;101309.28;;;-0.99;100.00
12666;BME280;58531;59.050;17.416;2024-03-17T08:12:34;101308.25;;;-0.79;100.00
12666;BME280;58531;59.050;17.416;2024-03-17T08:15:01;101321.91;;;-0.70;100.00
12666;BME280;58531;59.050;17.416;2024-03-17T08:17:28;101342.38;;;-0.60;100.00
12666;BME280;58531;59.050;17.416;2024-03-17T08:19:56;101339.13;;;-0.38;100.00
12666;BME280;58531;59.050;17.416;2024-03-17T08:22:23;101338.09;;;-0.15;100.00
12666;BME280;58531;59.050;17.416;2024-03-17T08:24:50;101338.69;;;-0.21;100.00
12666;BME280;58531;59.050;17.416;2024-03-17T08:27:17;101350.50;;;-0.31;100.00
12666;BME280;58531;59.050;17.416;2024-03-17T08:29:44;101352.13;;;-0.26;100.00
12666;BME280;58531;59.050;17.416;2024-03-17T08:32:11;101358.25;;;-0.19;100.00
12666;BME280;58531;59.050;17.416;2024-03-17T08:34:40;101352.81;;;0.08;100.00
12666;BME280;58531;59.050;17.416;2024-03-17T08:37:08;101364.69;;;0.02;100.00
12666;BME280;58531;59.050;17.416;2024-03-17T08:39:35;101363.88;;;-0.36;100.00
12666;BME280;58531;59.050;17.416;2024-03-17T08:42:02;101393.47;;;-0.54;100.00
12666;BME280;58531;59.050;17.416;2024-03-17T08:44:29;101370.34;;;-0.49;100.00
12666;BME280;58531;59.050;17.416;2024-03-17T08:46:56;101389.66;;;-0.22;100.00
12666;BME280;58531;59.050;17.416;2024-03-17T08:49:23;101385.84;;;0.09;100.00
12666;BME280;58531;59.050;17.416;2024-03-17T08:51:51;101397.03;;;0.25;100.00
12666;BME280;58531;59.050;17.416;2024-03-17T08:54:19;101390.53;;;0.19;100.00
12666;BME280;58531;59.050;17.416;2024-03-17T08:56:46;101392.25;;;0.31;100.00
12666;BME280;58531;59.050;17.416;2024-03-17T08:59:15;101401.84;;;0.61;100.00
12666;BME280;58531;59.050;17.416;2024-03-17T09:01:41;101396.44;;;0.73;100.00
12666;BME280;58531;59.050;17.416;2024-03-17T09:04:08;101417.16;;;0.78;100.00
12666;BME280;58531;59.050;17.416;2024-03-17T09:06:36;101422.91;;;0.65;100.00
12666;BME280;58531;59.050;17.416;2024-03-17T09:09:03;101423.94;;;0.79;100.00
12666;BME280;58531;59.050;17.416;2024-03-17T09:11:33;101429.91;;;0.57;100.00
12666;BME280;58531;59.050;17.416;2024-03-17T09:13:59;101425.91;;;0.63;100.00
12666;BME280;58531;59.050;17.416;2024-03-17T09:16:29;101438.50;;;0.73;100.00
12666;BME280;58531;59.050;17.416;2024-03-17T09:18:57;101439.28;;;0.36;100.00
12666;BME280;58531;59.050;17.416;2024-03-17T09:21:24;101439.00;;;0.41;100.00
12666;BME280;58531;59.050;17.416;2024-03-17T09:23:51;101442.50;;;0.67;100.00
12666;BME280;58531;59.050;17.416;2024-03-17T09:26:18;101461.94;;;0.63;100.00
12666;BME280;58531;59.050;17.416;2024-03-17T09:28:46;101467.00;;;0.52;100.00
12666;BME280;58531;59.050;17.416;2024-03-17T09:31:13;101461.69;;;0.49;100.00
12666;BME280;58531;59.050;17.416;2024-03-17T09:33:40;101466.19;;;0.90;100.00
12666;BME280;58531;59.050;17.416;2024-03-17T09:36:08;101474.44;;;1.33;100.00
12666;BME280;58531;59.050;17.416;2024-03-17T09:38:37;101481.22;;;1.12;100.00
12666;BME280;58531;59.050;17.416;2024-03-17T09:41:05;101477.38;;;0.64;100.00
12666;BME280;58531;59.050;17.416;2024-03-17T09:43:33;101494.72;;;0.69;100.00
12666;BME280;58531;59.050;17.416;2024-03-17T09:46:03;101498.63;;;0.78;100.00
12666;BME280;58531;59.050;17.416;2024-03-17T09:48:31;101515.25;;;0.63;100.00
12666;BME280;58531;59.050;17.416;2024-03-17T09:50:59;101507.72;;;0.81;100.00
12666;BME280;58531;59.050;17.416;2024-03-17T09:53:31;101516.63;;;0.95;100.00
12666;BME280;58531;59.050;17.416;2024-03-17T09:56:00;101517.97;;;0.48;100.00
12666;BME280;58531;59.050;17.416;2024-03-17T09:58:28;101524.22;;;0.24;100.00
12666;BME280;58531;59.050;17.416;2024-03-17T10:00:55;101530.00;;;0.14;100.00
12666;BME280;58531;59.050;17.416;2024-03-17T10:03:42;101515.88;;;0.03;100.00
12666;BME280;58531;59.050;17.416;2024-03-17T10:06:10;101514.75;;;0.04;100.00
12666;BME280;58531;59.050;17.416;2024-03-17T10:08:42;101527.63;;;0.09;100.00
12666;BME280;58531;59.050;17.416;2024-03-17T10:11:09;101550.47;;;0.24;100.00
12666;BME280;58531;59.050;17.416;2024-03-17T10:13:36;101530.47;;;0.20;100.00
12666;BME280;58531;59.050;17.416;2024-03-17T10:16:03;101554.81;;;0.17;100.00
12666;BME280;58531;59.050;17.416;2024-03-17T10:18:33;101549.03;;;0.27;100.00
12666;BME280;58531;59.050;17.416;2024-03-17T10:21:02;101578.88;;;0.03;100.00
12666;BME280;58531;59.050;17.416;2024-03-17T10:23:30;101575.59;;;0.06;100.00
12666;BME280;58531;59.050;17.416;2024-03-17T10:25:57;101569.97;;;0.23;100.00
12666;BME280;58531;59.050;17.416;2024-03-17T10:28:25;101588.78;;;0.25;100.00
12666;BME280;58531;59.050;17.416;2024-03-17T10:30:58;101590.22;;;0.23;100.00
12666;BME280;58531;59.050;17.416;2024-03-17T10:33:26;101600.09;;;0.29;100.00
12666;BME280;58531;59.050;17.416;2024-03-17T10:36:02;101602.78;;;0.48;100.00
12666;BME280;58531;59.050;17.416;2024-03-17T10:38:31;101607.44;;;0.20;100.00
12666;BME280;58531;59.050;17.416;2024-03-17T10:41:00;101626.47;;;0.33;100.00
12666;BME280;58531;59.050;17.416;2024-03-17T10:43:28;101614.19;;;0.37;100.00
12666;BME280;58531;59.050;17.416;2024-03-17T10:45:57;101609.34;;;0.39;100.00
12666;BME280;58531;59.050;17.416;2024-03-17T10:48:30;101610.09;;;0.39;100.00
12666;BME280;58531;59.050;17.416;2024-03-17T10:51:03;101615.19;;;0.32;100.00
12666;BME280;58531;59.050;17.416;2024-03-17T10:53:32;101626.78;;;0.47;100.00
12666;BME280;58531;59.050;17.416;2024-03-17T10:56:04;101633.94;;;0.65;100.00
12666;BME280;58531;59.050;17.416;2024-03-17T10:58:35;101637.53;;;0.57;100.00
12666;BME280;58531;59.050;17.416;2024-03-17T11:01:03;101628.56;;;0.43;100.00
12666;BME280;58531;59.050;17.416;2024-03-17T11:03:32;101631.31;;;0.15;100.00
12666;BME280;58531;59.050;17.416;2024-03-17T11:06:03;101669.59;;;0.16;100.00
12666;BME280;58531;59.050;17.416;2024-03-17T11:08:32;101645.53;;;0.14;100.00
12666;BME280;58531;59.050;17.416;2024-03-17T11:10:59;101637.56;;;0.11;100.00
12666;BME280;58531;59.050;17.416;2024-03-17T11:13:26;101651.66;;;0.18;100.00
12666;BME280;58531;59.050;17.416;2024-03-17T11:15:54;101662.31;;;0.25;100.00
12666;BME280;58531;59.050;17.416;2024-03-17T11:18:33;101680.34;;;0.27;100.00
12666;BME280;58531;59.050;17.416;2024-03-17T11:21:00;101668.94;;;0.19;100.00
12666;BME280;58531;59.050;17.416;2024-03-17T11:23:35;101673.75;;;0.17;100.00
12666;BME280;58531;59.050;17.416;2024-03-17T11:26:04;101679.50;;;0.23;100.00
12666;BME280;58531;59.050;17.416;2024-03-17T11:28:48;101709.19;;;0.39;100.00
12666;BME280;58531;59.050;17.416;2024-03-17T11:31:43;101679.25;;;0.43;100.00
12666;BME280;58531;59.050;17.416;2024-03-17T11:34:34;101692.47;;;0.62;100.00
12666;BME280;58531;59.050;17.416;2024-03-17T11:37:03;101686.69;;;0.57;100.00
12666;BME280;58531;59.050;17.416;2024-03-17T11:39:54;101686.34;;;0.58;100.00
12666;BME280;58531;59.050;17.416;2024-03-17T11:42:25;101708.16;;;0.43;100.00
12666;BME280;58531;59.050;17.416;2024-03-17T11:44:59;101698.56;;;0.35;100.00
12666;BME280;58531;59.050;17.416;2024-03-17T11:47:40;101697.13;;;0.53;100.00
12666;BME280;58531;59.050;17.416;2024-03-17T11:50:08;101700.25;;;0.59;100.00
12666;BME280;58531;59.050;17.416;2024-03-17T11:52:37;101702.81;;;0.55;100.00
12666;BME280;58531;59.050;17.416;2024-03-17T11:55:05;101702.13;;;0.58;100.00
12666;BME280;58531;59.050;17.416;2024-03-17T11:57:32;101704.09;;;0.46;100.00
12666;BME280;58531;59.050;17.416;2024-03-17T11:59:57;101725.13;;;0.46;100.00
12666;BME280;58531;59.050;17.416;2024-03-17T12:02:26;101718.75;;;0.47;100.00
12666;BME280;58531;59.050;17.416;2024-03-17T12:04:52;101713.41;;;0.43;100.00
12666;BME280;58531;59.050;17.416;2024-03-17T12:07:20;101716.03;;;0.28;100.00
12666;BME280;58531;59.050;17.416;2024-03-17T12:09:47;101734.50;;;0.31;100.00
12666;BME280;58531;59.050;17.416;2024-03-17T12:12:17;101747.47;;;0.24;100.00
12666;BME280;58531;59.050;17.416;2024-03-17T12:14:43;101734.09;;;0.45;100.00
12666;BME280;58531;59.050;17.416;2024-03-17T12:17:12;101746.69;;;0.55;100.00
12666;BME280;58531;59.050;17.416;2024-03-17T12:19:45;101741.63;;;0.31;100.00
12666;BME280;58531;59.050;17.416;2024-03-17T12:22:17;101753.50;;;0.40;100.00
12666;BME280;58531;59.050;17.416;2024-03-17T12:24:48;101754.41;;;0.17;100.00
12666;BME280;58531;59.050;17.416;2024-03-17T12:27:18;101764.34;;;0.23;100.00
12666;BME280;58531;59.050;17.416;2024-03-17T12:29:46;101758.22;;;0.19;100.00
12666;BME280;58531;59.050;17.416;2024-03-17T12:32:14;101760.28;;;-0.02;100.00
12666;BME280;58531;59.050;17.416;2024-03-17T12:34:42;101760.72;;;0.00;100.00
12666;BME280;58531;59.050;17.416;2024-03-17T12:37:08;101750.66;;;0.18;100.00
12666;BME280;58531;59.050;17.416;2024-03-17T12:39:41;101760.59;;;0.24;100.00